sensor_id;sensor_type;location;lat;lon;timestamp;P1;durP1;ratioP1;P2;durP2;ratioP2
78416;SDS011;67715;46.170;6.140;2023-06-10T00:02:13;9.98;;;7.00;;
78416;SDS011;67715;46.170;6.140;2023-06-10T00:04:38;11.70;;;6.77;;
78416;SDS011;67715;46.170;6.140;2023-06-10T00:07:04;11.60;;;7.47;;
78416;SDS011;67715;46.170;6.140;2023-06-10T00:09:33;13.25;;;6.75;;
78416;SDS011;67715;46.170;6.140;2023-06-10T00:12:03;10.93;;;7.68;;
78416;SDS011;67715;46.170;6.140;2023-06-10T00:14:29;11.40;;;8.77;;
78416;SDS011;67715;46.170;6.140;2023-06-10T00:16:55;10.67;;;7.83;;
78416;SDS011;67715;46.170;6.140;2023-06-10T00:19:20;8.90;;;6.73;;
78416;SDS011;67715;46.170;6.140;2023-06-10T00:21:50;10.43;;;7.25;;
78416;SDS011;67715;46.170;6.140;2023-06-10T00:24:17;10.57;;;6.45;;
78416;SDS011;67715;46.170;6.140;2023-06-10T00:26:43;11.38;;;6.80;;
78416;SDS011;67715;46.170;6.140;2023-06-10T00:29:08;17.50;;;7.30;;
78416;SDS011;67715;46.170;6.140;2023-06-10T00:31:34;12.53;;;6.90;;
78416;SDS011;67715;46.170;6.140;2023-06-10T00:33:59;9.73;;;6.05;;
78416;SDS011;67715;46.170;6.140;2023-06-10T00:36:25;8.63;;;5.93;;
78416;SDS011;67715;46.170;6.140;2023-06-10T00:38:50;8.93;;;5.67;;
78416;SDS011;67715;46.170;6.140;2023-06-10T00:41:15;14.07;;;5.90;;
78416;SDS011;67715;46.170;6.140;2023-06-10T00:43:41;8.87;;;6.27;;
78416;SDS011;67715;46.170;6.140;2023-06-10T00:46:06;11.13;;;6.33;;
78416;SDS011;67715;46.170;6.140;2023-06-10T00:48:32;11.20;;;6.45;;
78416;SDS011;67715;46.170;6.140;2023-06-10T00:50:57;8.85;;;5.97;;
78416;SDS011;67715;46.170;6.140;2023-06-10T00:53:23;9.35;;;6.60;;
78416;SDS011;67715;46.170;6.140;2023-06-10T00:55:48;11.43;;;6.15;;
78416;SDS011;67715;46.170;6.140;2023-06-10T00:58:14;8.80;;;5.97;;
78416;SDS011;67715;46.170;6.140;2023-06-10T01:00:40;8.27;;;6.45;;
78416;SDS011;67715;46.170;6.140;2023-06-10T01:03:06;10.15;;;5.97;;
78416;SDS011;67715;46.170;6.140;2023-06-10T01:05:33;9.38;;;5.47;;
78416;SDS011;67715;46.170;6.140;2023-06-10T01:10:49;10.25;;;5.80;;
78416;SDS011;67715;46.170;6.140;2023-06-10T01:13:16;7.93;;;5.95;;
78416;SDS011;67715;46.170;6.140;2023-06-10T01:15:43;8.30;;;5.90;;
78416;SDS011;67715;46.170;6.140;2023-06-10T01:18:09;10.77;;;6.63;;
78416;SDS011;67715;46.170;6.140;2023-06-10T01:20:40;10.02;;;6.05;;
78416;SDS011;67715;46.170;6.140;2023-06-10T01:23:06;14.10;;;6.03;;
78416;SDS011;67715;46.170;6.140;2023-06-10T01:25:32;11.23;;;6.82;;
78416;SDS011;67715;46.170;6.140;2023-06-10T01:33:02;12.85;;;6.90;;
78416;SDS011;67715;46.170;6.140;2023-06-10T01:35:29;13.73;;;7.10;;
78416;SDS011;67715;46.170;6.140;2023-06-10T01:37:55;10.95;;;6.05;;
78416;SDS011;67715;46.170;6.140;2023-06-10T01:40:22;9.65;;;6.68;;
78416;SDS011;67715;46.170;6.140;2023-06-10T01:42:48;8.65;;;6.93;;
78416;SDS011;67715;46.170;6.140;2023-06-10T01:45:13;13.25;;;6.85;;
78416;SDS011;67715;46.170;6.140;2023-06-10T01:47:39;8.63;;;6.77;;
78416;SDS011;67715;46.170;6.140;2023-06-10T01:50:04;12.93;;;7.57;;
78416;SDS011;67715;46.170;6.140;2023-06-10T01:52:30;10.88;;;6.95;;
78416;SDS011;67715;46.170;6.140;2023-06-10T01:54:55;12.38;;;7.15;;
78416;SDS011;67715;46.170;6.140;2023-06-10T01:57:20;10.23;;;7.67;;
78416;SDS011;67715;46.170;6.140;2023-06-10T01:59:46;10.60;;;7.30;;
78416;SDS011;67715;46.170;6.140;2023-06-10T02:02:11;8.25;;;6.75;;
78416;SDS011;67715;46.170;6.140;2023-06-10T02:04:36;10.52;;;7.15;;
78416;SDS011;67715;46.170;6.140;2023-06-10T02:07:02;9.38;;;7.00;;
78416;SDS011;67715;46.170;6.140;2023-06-10T02:09:29;10.00;;;6.70;;
78416;SDS011;67715;46.170;6.140;2023-06-10T02:12:00;10.63;;;7.70;;
78416;SDS011;67715;46.170;6.140;2023-06-10T02:14:26;14.70;;;8.13;;
78416;SDS011;67715;46.170;6.140;2023-06-10T02:16:51;8.67;;;6.07;;
78416;SDS011;67715;46.170;6.140;2023-06-10T02:19:21;12.95;;;7.38;;
78416;SDS011;67715;46.170;6.140;2023-06-10T02:21:46;11.65;;;7.90;;
78416;SDS011;67715;46.170;6.140;2023-06-10T02:24:12;12.07;;;6.87;;
78416;SDS011;67715;46.170;6.140;2023-06-10T02:26:37;9.20;;;5.80;;
78416;SDS011;67715;46.170;6.140;2023-06-10T02:29:02;7.78;;;5.80;;
78416;SDS011;67715;46.170;6.140;2023-06-10T02:31:28;15.65;;;7.22;;
78416;SDS011;67715;46.170;6.140;2023-06-10T02:33:53;13.23;;;6.70;;
78416;SDS011;67715;46.170;6.140;2023-06-10T02:36:19;11.30;;;7.72;;
78416;SDS011;67715;46.170;6.140;2023-06-10T02:38:46;9.18;;;7.30;;
78416;SDS011;67715;46.170;6.140;2023-06-10T02:41:12;10.87;;;7.13;;
78416;SDS011;67715;46.170;6.140;2023-06-10T02:43:37;9.50;;;6.80;;
78416;SDS011;67715;46.170;6.140;2023-06-10T02:46:02;9.50;;;6.53;;
78416;SDS011;67715;46.170;6.140;2023-06-10T02:48:27;9.37;;;6.50;;
78416;SDS011;67715;46.170;6.140;2023-06-10T02:50:53;11.47;;;7.63;;
78416;SDS011;67715;46.170;6.140;2023-06-10T02:53:18;10.48;;;8.10;;
78416;SDS011;67715;46.170;6.140;2023-06-10T02:55:43;10.83;;;7.70;;
78416;SDS011;67715;46.170;6.140;2023-06-10T02:58:09;11.52;;;7.38;;
78416;SDS011;67715;46.170;6.140;2023-06-10T03:00:34;11.90;;;7.53;;
78416;SDS011;67715;46.170;6.140;2023-06-10T03:03:00;12.63;;;8.52;;
78416;SDS011;67715;46.170;6.140;2023-06-10T03:05:28;11.80;;;8.40;;
78416;SDS011;67715;46.170;6.140;2023-06-10T03:07:54;10.60;;;7.68;;
78416;SDS011;67715;46.170;6.140;2023-06-10T03:10:19;10.93;;;8.40;;
78416;SDS011;67715;46.170;6.140;2023-06-10T03:12:45;13.95;;;9.13;;
78416;SDS011;67715;46.170;6.140;2023-06-10T03:15:10;12.80;;;7.72;;
78416;SDS011;67715;46.170;6.140;2023-06-10T03:17:35;11.80;;;6.95;;
78416;SDS011;67715;46.170;6.140;2023-06-10T03:20:01;11.18;;;7.65;;
78416;SDS011;67715;46.170;6.140;2023-06-10T03:22:28;11.30;;;7.97;;
78416;SDS011;67715;46.170;6.140;2023-06-10T03:24:53;12.03;;;7.37;;
78416;SDS011;67715;46.170;6.140;2023-06-10T03:27:19;16.35;;;9.52;;
78416;SDS011;67715;46.170;6.140;2023-06-10T03:29:45;11.23;;;6.80;;
78416;SDS011;67715;46.170;6.140;2023-06-10T03:32:10;8.32;;;6.47;;
78416;SDS011;67715;46.170;6.140;2023-06-10T03:34:36;9.90;;;7.95;;
78416;SDS011;67715;46.170;6.140;2023-06-10T03:37:01;11.10;;;6.83;;
78416;SDS011;67715;46.170;6.140;2023-06-10T03:39:26;9.50;;;7.73;;
78416;SDS011;67715;46.170;6.140;2023-06-10T03:41:54;10.10;;;7.07;;
78416;SDS011;67715;46.170;6.140;2023-06-10T03:44:19;10.98;;;7.10;;
78416;SDS011;67715;46.170;6.140;2023-06-10T03:46:45;8.68;;;7.35;;
78416;SDS011;67715;46.170;6.140;2023-06-10T03:49:10;9.05;;;6.97;;
78416;SDS011;67715;46.170;6.140;2023-06-10T03:51:36;11.75;;;7.75;;
78416;SDS011;67715;46.170;6.140;2023-06-10T03:54:02;11.60;;;7.22;;
78416;SDS011;67715;46.170;6.140;2023-06-10T03:56:27;12.88;;;8.90;;
78416;SDS011;67715;46.170;6.140;2023-06-10T03:58:53;10.80;;;7.47;;
78416;SDS011;67715;46.170;6.140;2023-06-10T04:01:19;9.55;;;7.38;;
78416;SDS011;67715;46.170;6.140;2023-06-10T04:03:45;11.68;;;7.57;;
78416;SDS011;67715;46.170;6.140;2023-06-10T04:06:13;12.02;;;8.25;;
78416;SDS011;67715;46.170;6.140;2023-06-10T04:08:38;11.80;;;8.30;;
78416;SDS011;67715;46.170;6.140;2023-06-10T04:11:04;11.73;;;6.78;;
78416;SDS011;67715;46.170;6.140;2023-06-10T04:13:29;11.10;;;7.70;;
78416;SDS011;67715;46.170;6.140;2023-06-10T04:15:54;12.53;;;9.10;;
78416;SDS011;67715;46.170;6.140;2023-06-10T04:18:20;11.73;;;8.00;;
78416;SDS011;67715;46.170;6.140;2023-06-10T04:20:46;25.08;;;10.05;;
78416;SDS011;67715;46.170;6.140;2023-06-10T04:23:12;14.70;;;9.95;;
78416;SDS011;67715;46.170;6.140;2023-06-10T04:25:37;13.87;;;9.00;;
78416;SDS011;67715;46.170;6.140;2023-06-10T04:28:02;13.67;;;8.90;;
78416;SDS011;67715;46.170;6.140;2023-06-10T04:30:28;12.50;;;8.70;;
78416;SDS011;67715;46.170;6.140;2023-06-10T04:32:53;17.80;;;9.87;;
78416;SDS011;67715;46.170;6.140;2023-06-10T04:35:19;14.88;;;9.10;;
78416;SDS011;67715;46.170;6.140;2023-06-10T04:37:44;11.70;;;8.48;;
78416;SDS011;67715;46.170;6.140;2023-06-10T04:40:10;12.38;;;8.63;;
78416;SDS011;67715;46.170;6.140;2023-06-10T04:42:35;12.40;;;9.15;;
78416;SDS011;67715;46.170;6.140;2023-06-10T04:45:01;14.73;;;8.93;;
78416;SDS011;67715;46.170;6.140;2023-06-10T04:47:27;10.68;;;7.55;;
78416;SDS011;67715;46.170;6.140;2023-06-10T04:49:53;13.75;;;9.27;;
78416;SDS011;67715;46.170;6.140;2023-06-10T04:52:18;12.23;;;8.67;;
78416;SDS011;67715;46.170;6.140;2023-06-10T04:54:44;11.38;;;8.18;;
78416;SDS011;67715;46.170;6.140;2023-06-10T04:57:09;12.33;;;7.90;;
78416;SDS011;67715;46.170;6.140;2023-06-10T04:59:36;12.73;;;9.27;;
78416;SDS011;67715;46.170;6.140;2023-06-10T05:02:03;11.77;;;8.90;;
78416;SDS011;67715;46.170;6.140;2023-06-10T05:04:29;12.30;;;8.02;;
78416;SDS011;67715;46.170;6.140;2023-06-10T05:06:55;13.23;;;8.43;;
78416;SDS011;67715;46.170;6.140;2023-06-10T05:09:20;11.85;;;8.23;;
78416;SDS011;67715;46.170;6.140;2023-06-10T05:11:46;13.10;;;8.60;;
78416;SDS011;67715;46.170;6.140;2023-06-10T05:14:11;11.80;;;7.90;;
78416;SDS011;67715;46.170;6.140;2023-06-10T05:16:36;13.30;;;9.02;;
78416;SDS011;67715;46.170;6.140;2023-06-10T05:19:02;12.32;;;8.55;;
78416;SDS011;67715;46.170;6.140;2023-06-10T05:21:28;14.55;;;8.65;;
78416;SDS011;67715;46.170;6.140;2023-06-10T05:23:53;14.03;;;9.00;;
78416;SDS011;67715;46.170;6.140;2023-06-10T05:26:19;13.13;;;9.45;;
78416;SDS011;67715;46.170;6.140;2023-06-10T05:28:45;11.63;;;9.10;;
78416;SDS011;67715;46.170;6.140;2023-06-10T05:31:10;11.17;;;7.87;;
78416;SDS011;67715;46.170;6.140;2023-06-10T05:33:35;12.27;;;8.00;;
78416;SDS011;67715;46.170;6.140;2023-06-10T05:36:01;14.98;;;9.27;;
78416;SDS011;67715;46.170;6.140;2023-06-10T05:38:26;10.33;;;6.93;;
78416;SDS011;67715;46.170;6.140;2023-06-10T05:40:51;12.83;;;7.23;;
78416;SDS011;67715;46.170;6.140;2023-06-10T05:43:17;10.43;;;7.30;;
78416;SDS011;67715;46.170;6.140;2023-06-10T05:45:42;13.47;;;8.13;;
78416;SDS011;67715;46.170;6.140;2023-06-10T05:48:07;11.18;;;7.53;;
78416;SDS011;67715;46.170;6.140;2023-06-10T05:50:33;11.93;;;7.87;;
78416;SDS011;67715;46.170;6.140;2023-06-10T05:53:03;13.48;;;7.35;;
78416;SDS011;67715;46.170;6.140;2023-06-10T05:55:28;9.43;;;7.10;;
78416;SDS011;67715;46.170;6.140;2023-06-10T05:57:59;9.57;;;7.40;;
78416;SDS011;67715;46.170;6.140;2023-06-10T06:00:25;9.73;;;7.28;;
78416;SDS011;67715;46.170;6.140;2023-06-10T06:02:51;8.63;;;6.53;;
78416;SDS011;67715;46.170;6.140;2023-06-10T06:05:17;14.57;;;8.20;;
78416;SDS011;67715;46.170;6.140;2023-06-10T06:07:43;10.27;;;6.73;;
78416;SDS011;67715;46.170;6.140;2023-06-10T06:10:08;19.83;;;8.68;;
78416;SDS011;67715;46.170;6.140;2023-06-10T06:12:33;11.02;;;8.20;;
78416;SDS011;67715;46.170;6.140;2023-06-10T06:14:59;13.17;;;8.93;;
78416;SDS011;67715;46.170;6.140;2023-06-10T06:17:24;16.43;;;8.60;;
78416;SDS011;67715;46.170;6.140;2023-06-10T06:19:49;13.60;;;9.33;;
78416;SDS011;67715;46.170;6.140;2023-06-10T06:22:15;12.27;;;7.22;;
78416;SDS011;67715;46.170;6.140;2023-06-10T06:24:40;12.52;;;8.23;;
78416;SDS011;67715;46.170;6.140;2023-06-10T06:27:05;11.43;;;8.63;;
78416;SDS011;67715;46.170;6.140;2023-06-10T06:29:31;10.85;;;8.02;;
78416;SDS011;67715;46.170;6.140;2023-06-10T06:31:56;12.43;;;8.60;;
78416;SDS011;67715;46.170;6.140;2023-06-10T06:34:22;13.13;;;9.33;;
78416;SDS011;67715;46.170;6.140;2023-06-10T06:36:47;12.53;;;9.27;;
78416;SDS011;67715;46.170;6.140;2023-06-10T06:39:12;15.23;;;9.40;;
78416;SDS011;67715;46.170;6.140;2023-06-10T06:41:37;14.27;;;10.18;;
78416;SDS011;67715;46.170;6.140;2023-06-10T06:44:03;14.63;;;11.40;;
78416;SDS011;67715;46.170;6.140;2023-06-10T06:46:28;13.32;;;10.27;;
78416;SDS011;67715;46.170;6.140;2023-06-10T06:48:54;18.87;;;10.33;;
78416;SDS011;67715;46.170;6.140;2023-06-10T06:51:19;12.07;;;9.47;;
78416;SDS011;67715;46.170;6.140;2023-06-10T06:53:44;14.67;;;10.07;;
78416;SDS011;67715;46.170;6.140;2023-06-10T06:56:11;14.73;;;10.50;;
78416;SDS011;67715;46.170;6.140;2023-06-10T06:58:36;14.05;;;9.95;;
78416;SDS011;67715;46.170;6.140;2023-06-10T07:01:02;15.50;;;10.77;;
78416;SDS011;67715;46.170;6.140;2023-06-10T07:03:27;13.87;;;8.97;;
78416;SDS011;67715;46.170;6.140;2023-06-10T07:05:52;12.90;;;9.53;;
78416;SDS011;67715;46.170;6.140;2023-06-10T07:08:18;13.30;;;9.57;;
78416;SDS011;67715;46.170;6.140;2023-06-10T07:10:43;16.40;;;10.60;;
78416;SDS011;67715;46.170;6.140;2023-06-10T07:13:08;12.80;;;9.37;;
78416;SDS011;67715;46.170;6.140;2023-06-10T07:15:33;15.73;;;9.23;;
78416;SDS011;67715;46.170;6.140;2023-06-10T07:17:59;12.70;;;9.52;;
78416;SDS011;67715;46.170;6.140;2023-06-10T07:20:24;14.90;;;10.43;;
78416;SDS011;67715;46.170;6.140;2023-06-10T07:22:50;16.30;;;10.25;;
78416;SDS011;67715;46.170;6.140;2023-06-10T07:25:15;15.95;;;10.60;;
78416;SDS011;67715;46.170;6.140;2023-06-10T07:27:40;16.67;;;11.43;;
78416;SDS011;67715;46.170;6.140;2023-06-10T07:30:06;16.48;;;10.32;;
78416;SDS011;67715;46.170;6.140;2023-06-10T07:32:33;13.50;;;10.73;;
78416;SDS011;67715;46.170;6.140;2023-06-10T07:34:58;18.83;;;11.25;;
78416;SDS011;67715;46.170;6.140;2023-06-10T07:37:24;13.02;;;9.90;;
78416;SDS011;67715;46.170;6.140;2023-06-10T07:39:49;14.07;;;10.00;;
78416;SDS011;67715;46.170;6.140;2023-06-10T07:42:14;12.90;;;9.70;;
78416;SDS011;67715;46.170;6.140;2023-06-10T07:44:40;17.47;;;10.90;;
78416;SDS011;67715;46.170;6.140;2023-06-10T07:47:05;13.33;;;9.97;;
78416;SDS011;67715;46.170;6.140;2023-06-10T07:49:31;12.52;;;9.27;;
78416;SDS011;67715;46.170;6.140;2023-06-10T07:51:56;14.43;;;9.80;;
78416;SDS011;67715;46.170;6.140;2023-06-10T07:54:22;14.23;;;10.50;;
78416;SDS011;67715;46.170;6.140;2023-06-10T07:56:47;11.37;;;8.43;;
78416;SDS011;67715;46.170;6.140;2023-06-10T07:59:15;13.97;;;10.60;;
78416;SDS011;67715;46.170;6.140;2023-06-10T08:01:41;12.73;;;10.02;;
78416;SDS011;67715;46.170;6.140;2023-06-10T08:04:07;14.45;;;9.30;;
78416;SDS011;67715;46.170;6.140;2023-06-10T08:06:33;19.42;;;14.40;;
78416;SDS011;67715;46.170;6.140;2023-06-10T08:08:58;13.63;;;10.80;;
78416;SDS011;67715;46.170;6.140;2023-06-10T08:11:24;17.92;;;10.52;;
78416;SDS011;67715;46.170;6.140;2023-06-10T08:13:53;15.38;;;10.82;;
78416;SDS011;67715;46.170;6.140;2023-06-10T08:16:18;16.07;;;10.13;;
78416;SDS011;67715;46.170;6.140;2023-06-10T08:18:43;12.37;;;8.73;;
78416;SDS011;67715;46.170;6.140;2023-06-10T08:21:08;12.20;;;9.23;;
78416;SDS011;67715;46.170;6.140;2023-06-10T08:23:34;17.83;;;11.53;;
78416;SDS011;67715;46.170;6.140;2023-06-10T08:25:59;15.90;;;11.30;;
78416;SDS011;67715;46.170;6.140;2023-06-10T08:28:24;12.37;;;10.20;;
78416;SDS011;67715;46.170;6.140;2023-06-10T08:30:50;12.10;;;8.80;;
78416;SDS011;67715;46.170;6.140;2023-06-10T08:33:15;13.27;;;9.80;;
78416;SDS011;67715;46.170;6.140;2023-06-10T08:35:40;16.93;;;10.33;;
78416;SDS011;67715;46.170;6.140;2023-06-10T08:38:06;14.25;;;9.82;;
78416;SDS011;67715;46.170;6.140;2023-06-10T08:40:32;12.77;;;9.45;;
78416;SDS011;67715;46.170;6.140;2023-06-10T08:43:07;15.23;;;10.35;;
78416;SDS011;67715;46.170;6.140;2023-06-10T08:48:04;13.13;;;9.15;;
78416;SDS011;67715;46.170;6.140;2023-06-10T08:50:34;10.48;;;7.65;;
78416;SDS011;67715;46.170;6.140;2023-06-10T08:53:01;12.02;;;8.60;;
78416;SDS011;67715;46.170;6.140;2023-06-10T08:55:30;11.32;;;8.70;;
78416;SDS011;67715;46.170;6.140;2023-06-10T08:57:59;14.25;;;8.15;;
78416;SDS011;67715;46.170;6.140;2023-06-10T09:00:25;10.77;;;8.25;;
78416;SDS011;67715;46.170;6.140;2023-06-10T09:02:51;12.93;;;7.50;;
78416;SDS011;67715;46.170;6.140;2023-06-10T09:05:17;12.35;;;9.60;;
78416;SDS011;67715;46.170;6.140;2023-06-10T09:07:42;12.73;;;9.52;;
78416;SDS011;67715;46.170;6.140;2023-06-10T09:10:08;12.13;;;8.85;;
78416;SDS011;67715;46.170;6.140;2023-06-10T09:12:34;10.13;;;7.60;;
78416;SDS011;67715;46.170;6.140;2023-06-10T09:15:00;11.52;;;8.25;;
78416;SDS011;67715;46.170;6.140;2023-06-10T09:17:26;13.63;;;8.75;;
78416;SDS011;67715;46.170;6.140;2023-06-10T09:19:52;12.73;;;8.30;;
78416;SDS011;67715;46.170;6.140;2023-06-10T09:22:20;8.43;;;7.22;;
78416;SDS011;67715;46.170;6.140;2023-06-10T09:24:46;12.60;;;7.40;;
78416;SDS011;67715;46.170;6.140;2023-06-10T09:27:12;13.18;;;8.05;;
78416;SDS011;67715;46.170;6.140;2023-06-10T09:29:47;8.93;;;6.88;;
78416;SDS011;67715;46.170;6.140;2023-06-10T09:32:17;8.40;;;5.82;;
78416;SDS011;67715;46.170;6.140;2023-06-10T09:34:43;9.88;;;6.93;;
78416;SDS011;67715;46.170;6.140;2023-06-10T09:37:09;9.10;;;6.40;;
78416;SDS011;67715;46.170;6.140;2023-06-10T09:39:37;7.75;;;5.75;;
78416;SDS011;67715;46.170;6.140;2023-06-10T09:42:02;8.90;;;6.15;;
78416;SDS011;67715;46.170;6.140;2023-06-10T09:44:40;9.88;;;5.93;;
78416;SDS011;67715;46.170;6.140;2023-06-10T09:47:06;9.43;;;7.27;;
78416;SDS011;67715;46.170;6.140;2023-06-10T09:49:31;9.23;;;7.55;;
78416;SDS011;67715;46.170;6.140;2023-06-10T09:51:56;8.53;;;5.73;;
78416;SDS011;67715;46.170;6.140;2023-06-10T09:54:22;10.30;;;6.23;;
78416;SDS011;67715;46.170;6.140;2023-06-10T09:56:48;8.98;;;5.88;;
78416;SDS011;67715;46.170;6.140;2023-06-10T09:59:14;8.02;;;5.50;;
78416;SDS011;67715;46.170;6.140;2023-06-10T10:01:39;10.23;;;5.97;;
78416;SDS011;67715;46.170;6.140;2023-06-10T10:04:05;7.85;;;5.90;;
78416;SDS011;67715;46.170;6.140;2023-06-10T10:06:30;7.20;;;5.60;;
78416;SDS011;67715;46.170;6.140;2023-06-10T10:08:55;11.47;;;6.37;;
78416;SDS011;67715;46.170;6.140;2023-06-10T10:11:21;7.57;;;6.20;;
78416;SDS011;67715;46.170;6.140;2023-06-10T10:13:48;8.65;;;6.43;;
78416;SDS011;67715;46.170;6.140;2023-06-10T10:16:15;8.70;;;6.15;;
78416;SDS011;67715;46.170;6.140;2023-06-10T10:18:45;8.88;;;6.78;;
78416;SDS011;67715;46.170;6.140;2023-06-10T10:21:14;10.32;;;6.15;;
78416;SDS011;67715;46.170;6.140;2023-06-10T10:26:11;9.75;;;6.45;;
78416;SDS011;67715;46.170;6.140;2023-06-10T10:28:39;8.80;;;5.72;;
78416;SDS011;67715;46.170;6.140;2023-06-10T10:31:10;9.50;;;6.88;;
78416;SDS011;67715;46.170;6.140;2023-06-10T10:33:42;8.77;;;6.10;;
78416;SDS011;67715;46.170;6.140;2023-06-10T10:36:18;10.75;;;6.40;;
78416;SDS011;67715;46.170;6.140;2023-06-10T10:38:44;7.95;;;5.88;;
78416;SDS011;67715;46.170;6.140;2023-06-10T10:41:10;8.13;;;6.32;;
78416;SDS011;67715;46.170;6.140;2023-06-10T10:43:36;8.50;;;6.07;;
78416;SDS011;67715;46.170;6.140;2023-06-10T10:46:02;5.93;;;5.05;;
78416;SDS011;67715;46.170;6.140;2023-06-10T10:48:35;8.35;;;5.53;;
78416;SDS011;67715;46.170;6.140;2023-06-10T10:51:02;9.40;;;5.57;;
78416;SDS011;67715;46.170;6.140;2023-06-10T10:53:27;7.57;;;5.50;;
78416;SDS011;67715;46.170;6.140;2023-06-10T10:55:58;5.93;;;5.00;;
78416;SDS011;67715;46.170;6.140;2023-06-10T10:58:24;7.38;;;5.15;;
78416;SDS011;67715;46.170;6.140;2023-06-10T11:00:50;6.85;;;4.72;;
78416;SDS011;67715;46.170;6.140;2023-06-10T11:03:16;5.93;;;4.57;;
78416;SDS011;67715;46.170;6.140;2023-06-10T11:08:13;8.88;;;4.43;;
78416;SDS011;67715;46.170;6.140;2023-06-10T11:10:57;8.95;;;4.43;;
78416;SDS011;67715;46.170;6.140;2023-06-10T11:13:23;6.95;;;4.85;;
78416;SDS011;67715;46.170;6.140;2023-06-10T11:15:50;7.30;;;5.07;;
78416;SDS011;67715;46.170;6.140;2023-06-10T11:26:13;8.77;;;5.10;;
78416;SDS011;67715;46.170;6.140;2023-06-10T11:34:01;7.00;;;5.05;;
78416;SDS011;67715;46.170;6.140;2023-06-10T11:36:32;5.75;;;5.03;;
78416;SDS011;67715;46.170;6.140;2023-06-10T11:39:07;5.63;;;4.70;;
78416;SDS011;67715;46.170;6.140;2023-06-10T11:41:34;7.38;;;5.70;;
78416;SDS011;67715;46.170;6.140;2023-06-10T11:44:04;6.80;;;5.40;;
78416;SDS011;67715;46.170;6.140;2023-06-10T11:46:34;7.60;;;5.15;;
78416;SDS011;67715;46.170;6.140;2023-06-10T11:49:00;7.05;;;5.28;;
78416;SDS011;67715;46.170;6.140;2023-06-10T11:51:31;6.72;;;5.00;;
78416;SDS011;67715;46.170;6.140;2023-06-10T11:53:58;8.45;;;5.32;;
78416;SDS011;67715;46.170;6.140;2023-06-10T11:56:24;5.93;;;5.15;;
78416;SDS011;67715;46.170;6.140;2023-06-10T11:58:54;7.43;;;4.93;;
78416;SDS011;67715;46.170;6.140;2023-06-10T12:01:31;5.60;;;4.70;;
78416;SDS011;67715;46.170;6.140;2023-06-10T12:03:58;7.47;;;5.03;;
78416;SDS011;67715;46.170;6.140;2023-06-10T12:06:23;9.43;;;4.53;;
78416;SDS011;67715;46.170;6.140;2023-06-10T12:08:48;6.43;;;5.05;;
78416;SDS011;67715;46.170;6.140;2023-06-10T12:11:14;7.20;;;4.77;;
78416;SDS011;67715;46.170;6.140;2023-06-10T12:13:45;5.80;;;4.82;;
78416;SDS011;67715;46.170;6.140;2023-06-10T12:16:13;6.50;;;4.85;;
78416;SDS011;67715;46.170;6.140;2023-06-10T12:18:38;5.82;;;4.75;;
78416;SDS011;67715;46.170;6.140;2023-06-10T12:21:14;5.53;;;4.47;;
78416;SDS011;67715;46.170;6.140;2023-06-10T12:24:03;5.22;;;4.63;;
78416;SDS011;67715;46.170;6.140;2023-06-10T12:29:21;5.82;;;4.75;;
78416;SDS011;67715;46.170;6.140;2023-06-10T12:31:57;6.30;;;4.55;;
78416;SDS011;67715;46.170;6.140;2023-06-10T12:37:00;5.60;;;3.92;;
78416;SDS011;67715;46.170;6.140;2023-06-10T12:39:26;4.28;;;3.50;;
78416;SDS011;67715;46.170;6.140;2023-06-10T12:41:52;12.77;;;4.95;;
78416;SDS011;67715;46.170;6.140;2023-06-10T12:44:17;5.32;;;3.92;;
78416;SDS011;67715;46.170;6.140;2023-06-10T12:46:43;7.23;;;4.10;;
78416;SDS011;67715;46.170;6.140;2023-06-10T12:49:18;5.13;;;3.73;;
78416;SDS011;67715;46.170;6.140;2023-06-10T12:51:44;6.63;;;3.63;;
78416;SDS011;67715;46.170;6.140;2023-06-10T12:54:09;4.90;;;3.07;;
78416;SDS011;67715;46.170;6.140;2023-06-10T12:56:35;4.57;;;2.97;;
78416;SDS011;67715;46.170;6.140;2023-06-10T12:59:01;5.13;;;2.97;;
78416;SDS011;67715;46.170;6.140;2023-06-10T13:01:26;3.83;;;2.83;;
78416;SDS011;67715;46.170;6.140;2023-06-10T13:03:51;3.28;;;2.67;;
78416;SDS011;67715;46.170;6.140;2023-06-10T13:06:17;5.28;;;2.95;;
78416;SDS011;67715;46.170;6.140;2023-06-10T13:08:42;4.22;;;2.75;;
78416;SDS011;67715;46.170;6.140;2023-06-10T13:11:08;3.73;;;2.50;;
78416;SDS011;67715;46.170;6.140;2023-06-10T13:13:33;2.83;;;2.43;;
78416;SDS011;67715;46.170;6.140;2023-06-10T13:16:02;3.35;;;2.80;;
78416;SDS011;67715;46.170;6.140;2023-06-10T13:18:27;4.97;;;3.20;;
78416;SDS011;67715;46.170;6.140;2023-06-10T13:20:52;4.33;;;2.87;;
78416;SDS011;67715;46.170;6.140;2023-06-10T13:23:18;3.93;;;2.77;;
78416;SDS011;67715;46.170;6.140;2023-06-10T13:25:43;3.30;;;2.50;;
78416;SDS011;67715;46.170;6.140;2023-06-10T13:28:09;3.55;;;2.72;;
78416;SDS011;67715;46.170;6.140;2023-06-10T13:30:35;4.72;;;2.85;;
78416;SDS011;67715;46.170;6.140;2023-06-10T13:33:00;3.90;;;2.50;;
78416;SDS011;67715;46.170;6.140;2023-06-10T13:35:25;2.70;;;2.20;;
78416;SDS011;67715;46.170;6.140;2023-06-10T13:37:51;2.90;;;2.30;;
78416;SDS011;67715;46.170;6.140;2023-06-10T13:40:16;10.10;;;2.57;;
78416;SDS011;67715;46.170;6.140;2023-06-10T13:42:41;3.13;;;2.60;;
78416;SDS011;67715;46.170;6.140;2023-06-10T13:45:07;3.70;;;2.07;;
78416;SDS011;67715;46.170;6.140;2023-06-10T13:47:32;3.53;;;2.10;;
78416;SDS011;67715;46.170;6.140;2023-06-10T13:49:58;3.90;;;2.30;;
78416;SDS011;67715;46.170;6.140;2023-06-10T13:52:23;2.90;;;1.90;;
78416;SDS011;67715;46.170;6.140;2023-06-10T13:54:48;3.50;;;2.13;;
78416;SDS011;67715;46.170;6.140;2023-06-10T13:57:13;4.33;;;2.50;;
78416;SDS011;67715;46.170;6.140;2023-06-10T13:59:39;3.50;;;2.50;;
78416;SDS011;67715;46.170;6.140;2023-06-10T14:02:04;4.80;;;2.47;;
78416;SDS011;67715;46.170;6.140;2023-06-10T14:04:30;2.70;;;2.03;;
78416;SDS011;67715;46.170;6.140;2023-06-10T14:06:55;2.87;;;2.27;;
78416;SDS011;67715;46.170;6.140;2023-06-10T14:09:20;2.87;;;2.57;;
78416;SDS011;67715;46.170;6.140;2023-06-10T14:11:46;4.93;;;2.60;;
78416;SDS011;67715;46.170;6.140;2023-06-10T14:14:12;5.80;;;2.45;;
78416;SDS011;67715;46.170;6.140;2023-06-10T14:16:39;3.28;;;2.47;;
78416;SDS011;67715;46.170;6.140;2023-06-10T14:19:05;7.97;;;2.58;;
78416;SDS011;67715;46.170;6.140;2023-06-10T14:21:30;5.80;;;2.70;;
78416;SDS011;67715;46.170;6.140;2023-06-10T14:23:55;2.90;;;2.10;;
78416;SDS011;67715;46.170;6.140;2023-06-10T14:26:21;2.35;;;2.00;;
78416;SDS011;67715;46.170;6.140;2023-06-10T14:28:47;3.83;;;1.73;;
78416;SDS011;67715;46.170;6.140;2023-06-10T14:31:13;2.17;;;1.70;;
78416;SDS011;67715;46.170;6.140;2023-06-10T14:33:38;2.03;;;1.30;;
78416;SDS011;67715;46.170;6.140;2023-06-10T14:36:04;2.33;;;1.75;;
78416;SDS011;67715;46.170;6.140;2023-06-10T14:38:30;2.92;;;1.60;;
78416;SDS011;67715;46.170;6.140;2023-06-10T14:40:55;3.13;;;1.67;;
78416;SDS011;67715;46.170;6.140;2023-06-10T14:43:20;1.27;;;1.17;;
78416;SDS011;67715;46.170;6.140;2023-06-10T14:45:45;3.80;;;1.33;;
78416;SDS011;67715;46.170;6.140;2023-06-10T14:48:11;1.70;;;0.83;;
78416;SDS011;67715;46.170;6.140;2023-06-10T14:50:37;1.50;;;0.93;;
78416;SDS011;67715;46.170;6.140;2023-06-10T14:53:05;2.20;;;1.13;;
78416;SDS011;67715;46.170;6.140;2023-06-10T14:55:30;3.23;;;1.37;;
78416;SDS011;67715;46.170;6.140;2023-06-10T14:57:55;2.27;;;1.07;;
78416;SDS011;67715;46.170;6.140;2023-06-10T15:00:22;3.58;;;1.00;;
78416;SDS011;67715;46.170;6.140;2023-06-10T15:02:49;1.55;;;0.93;;
78416;SDS011;67715;46.170;6.140;2023-06-10T15:05:14;1.63;;;0.90;;
78416;SDS011;67715;46.170;6.140;2023-06-10T15:07:40;2.38;;;1.10;;